Orbital elements of FENGYUN 1C DEB
| Launched | 9 May 1999 |
| Flight ended | – |
| Launch site | Taiyuan Space Center, PRC |
| Owner | People's Republic of China |
| NORAD ID | 32171 |
| Date fetched |
Epoch osculation |
Inc. [°] |
Ecc. | RA asc node [hr] |
Arg Peri. [°] |
Mean anom [°] |
Mean motion [rev/day] |
Abs. mag |
| Date fetched |
Epoch osculation |
Inc. [°] |
Ecc. | RA asc node [hr] |
Arg Peri. [°] |
Mean anom [°] |
Mean motion [rev/day] |
Abs. mag |
| 2026 May 07 17:58 | 2026 May 04 02:20:23 | 102.8062 | 0.04842 | 4.3182 | 57.4140 | 323.3079 | 13.43699 | – |
| 2026 May 06 17:57 | 2026 May 04 02:20:23 | 102.8062 | 0.04842 | 4.3182 | 57.4140 | 323.3079 | 13.43699 | – |
| 2026 May 05 17:57 | 2026 May 04 02:20:23 | 102.8062 | 0.04842 | 4.3182 | 57.4140 | 323.3079 | 13.43699 | – |
| 2026 May 04 17:57 | 2026 Apr 29 02:36:45 | 102.8056 | 0.04837 | 3.8950 | 68.1567 | 323.3079 | 13.43699 | – |
| 2026 May 03 17:57 | 2026 Apr 29 02:36:45 | 102.8056 | 0.04837 | 3.8950 | 68.1567 | 323.3079 | 13.43699 | – |
| 2026 May 02 17:57 | 2026 Apr 29 02:36:45 | 102.8056 | 0.04837 | 3.8950 | 68.1567 | 323.3079 | 13.43699 | – |
| 2026 May 01 17:56 | 2026 Apr 29 02:36:45 | 102.8056 | 0.04837 | 3.8950 | 68.1567 | 323.3079 | 13.43699 | – |
| 2026 Apr 30 17:56 | 2026 Apr 29 02:36:45 | 102.8056 | 0.04837 | 3.8950 | 68.1567 | 323.3079 | 13.43699 | – |
| 2026 Apr 29 17:57 | 2026 Apr 21 01:37:43 | 102.8054 | 0.04827 | 3.2129 | 85.5203 | 323.3079 | 13.43699 | – |
| 2026 Apr 28 17:56 | 2026 Apr 21 01:37:43 | 102.8054 | 0.04827 | 3.2129 | 85.5203 | 323.3079 | 13.43699 | – |
| 2026 Apr 27 17:58 | 2026 Apr 21 01:37:43 | 102.8054 | 0.04827 | 3.2129 | 85.5203 | 323.3079 | 13.43699 | – |
| 2026 Apr 26 17:58 | 2026 Apr 21 01:37:43 | 102.8054 | 0.04827 | 3.2129 | 85.5203 | 323.3079 | 13.43699 | – |
| 2026 Apr 25 17:58 | 2026 Apr 21 01:37:43 | 102.8054 | 0.04827 | 3.2129 | 85.5203 | 323.3079 | 13.43699 | – |
| 2026 Apr 24 17:59 | 2026 Apr 21 01:37:43 | 102.8054 | 0.04827 | 3.2129 | 85.5203 | 323.3079 | 13.43699 | – |
| 2026 Apr 23 17:57 | 2026 Apr 16 01:54:00 | 102.8056 | 0.04817 | 2.7897 | 96.3137 | 323.3079 | 13.43699 | – |
| 2026 Apr 22 17:57 | 2026 Apr 16 01:54:00 | 102.8056 | 0.04817 | 2.7897 | 96.3137 | 323.3079 | 13.43699 | – |
| 2026 Apr 21 17:57 | 2026 Apr 16 01:54:00 | 102.8056 | 0.04817 | 2.7897 | 96.3137 | 323.3079 | 13.43699 | – |
| 2026 Apr 20 17:57 | 2026 Apr 16 01:54:00 | 102.8056 | 0.04817 | 2.7897 | 96.3137 | 323.3079 | 13.43699 | – |
| 2026 Apr 19 17:58 | 2026 Apr 16 01:54:00 | 102.8056 | 0.04817 | 2.7897 | 96.3137 | 323.3079 | 13.43699 | – |
| 2026 Apr 18 17:56 | 2026 Apr 13 02:24:21 | 102.8042 | 0.04811 | 2.5371 | 102.7723 | 323.3079 | 13.43699 | – |
| 2026 Apr 16 17:57 | 2026 Apr 13 02:24:21 | 102.8042 | 0.04811 | 2.5371 | 102.7723 | 323.3079 | 13.43699 | – |
| 2026 Apr 14 17:57 | 2026 Apr 13 02:24:21 | 102.8042 | 0.04811 | 2.5371 | 102.7723 | 323.3079 | 13.43699 | – |
| 2026 Apr 13 17:57 | 2026 Apr 13 02:24:21 | 102.8042 | 0.04811 | 2.5371 | 102.7723 | 323.3079 | 13.43699 | – |
| 2026 Apr 12 17:57 | 2026 Mar 28 13:38:38 | 102.8039 | 0.04786 | 1.2201 | 136.5950 | 323.3079 | 13.43699 | – |
| 2026 Apr 11 17:57 | 2026 Mar 28 13:38:38 | 102.8039 | 0.04786 | 1.2201 | 136.5950 | 323.3079 | 13.43699 | – |
| 2026 Apr 10 17:58 | 2026 Mar 28 13:38:38 | 102.8039 | 0.04786 | 1.2201 | 136.5950 | 323.3079 | 13.43699 | – |